createdAt,value
2024-01-28T00:00:10.954Z,2.47
2024-01-28T00:02:39.682Z,2.60
2024-01-28T00:05:08.504Z,2.33
2024-01-28T00:07:36.825Z,2.43
2024-01-28T00:10:05.385Z,2.17
2024-01-28T00:12:33.941Z,1.93
2024-01-28T00:15:03.768Z,2.27
2024-01-28T00:17:32.031Z,2.50
2024-01-28T00:20:00.388Z,2.50
2024-01-28T00:22:30.611Z,1.90
2024-01-28T00:24:58.968Z,2.63
2024-01-28T00:27:27.230Z,2.43
2024-01-28T00:29:55.511Z,2.40
2024-01-28T00:32:25.274Z,2.43
2024-01-28T00:34:53.755Z,2.50
2024-01-28T00:37:22.107Z,2.60
2024-01-28T00:39:50.504Z,2.70
2024-01-28T00:42:18.770Z,2.60
2024-01-28T00:44:47.004Z,2.30
2024-01-28T00:47:15.187Z,2.80
2024-01-28T00:49:45.111Z,2.57
2024-01-28T00:52:14.040Z,2.53
2024-01-28T00:54:42.377Z,2.20
2024-01-28T00:57:10.866Z,2.03
2024-01-28T00:59:39.396Z,2.80
2024-01-28T01:02:07.664Z,2.73
2024-01-28T01:04:36.004Z,2.47
2024-01-28T01:07:06.395Z,2.40
2024-01-28T01:09:37.158Z,3.03
2024-01-28T01:12:07.843Z,3.20
2024-01-28T01:14:39.046Z,3.30
2024-01-28T01:17:08.033Z,3.00
2024-01-28T01:19:36.912Z,3.30
2024-01-28T01:22:06.829Z,3.17
2024-01-28T01:24:35.099Z,2.80
2024-01-28T01:27:03.596Z,2.43
2024-01-28T01:29:31.914Z,2.90
2024-01-28T01:32:00.254Z,2.80
2024-01-28T01:34:28.883Z,2.53
2024-01-28T01:36:57.271Z,2.70
2024-01-28T01:39:27.098Z,2.60
2024-01-28T01:41:55.476Z,2.90
2024-01-28T01:44:23.798Z,3.30
2024-01-28T01:46:52.269Z,3.07
2024-01-28T01:49:20.741Z,3.50
2024-01-28T01:51:49.779Z,3.03
2024-01-28T01:54:18.216Z,2.63
2024-01-28T01:56:48.124Z,3.00
2024-01-28T01:59:16.983Z,3.20
2024-01-28T02:01:45.395Z,3.67
2024-01-28T02:04:14.782Z,3.27
2024-01-28T02:06:43.147Z,4.00
2024-01-28T02:09:12.223Z,3.33
2024-01-28T02:11:40.603Z,4.00
2024-01-28T02:14:11.359Z,2.90
2024-01-28T02:16:39.730Z,3.37
2024-01-28T02:19:08.076Z,3.90
2024-01-28T02:21:36.611Z,2.97
2024-01-28T02:24:06.789Z,2.70
2024-01-28T02:26:35.152Z,3.07
2024-01-28T02:29:04.489Z,3.10
2024-01-28T02:31:32.781Z,3.53
2024-01-28T02:34:01.453Z,3.80
2024-01-28T02:36:31.624Z,3.07
2024-01-28T02:39:00.713Z,3.77
2024-01-28T02:41:30.388Z,3.33
2024-01-28T02:43:58.617Z,3.37
2024-01-28T02:46:26.849Z,2.70
2024-01-28T02:48:56.172Z,3.47
2024-01-28T02:51:24.986Z,3.80
2024-01-28T02:53:53.283Z,3.20
2024-01-28T02:56:21.575Z,2.97
2024-01-28T02:58:51.308Z,3.20
2024-01-28T03:01:19.723Z,3.13
2024-01-28T03:03:48.161Z,3.03
2024-01-28T03:06:16.709Z,2.83
2024-01-28T03:08:45.975Z,3.40
2024-01-28T03:11:14.350Z,3.27
2024-01-28T03:13:42.714Z,3.37
2024-01-28T03:16:12.736Z,3.33
2024-01-28T03:18:41.032Z,2.93
2024-01-28T03:21:09.258Z,2.90
2024-01-28T03:23:38.030Z,2.97
2024-01-28T03:26:06.330Z,3.73
2024-01-28T03:28:34.624Z,2.97
2024-01-28T03:31:02.907Z,2.93
2024-01-28T03:33:32.775Z,3.20
2024-01-28T03:36:01.158Z,3.23
2024-01-28T03:38:29.517Z,3.20
2024-01-28T03:40:57.877Z,3.10
2024-01-28T03:43:26.172Z,2.90
2024-01-28T03:45:54.513Z,3.20
2024-01-28T03:48:23.158Z,3.00
2024-01-28T03:50:53.387Z,3.40
2024-01-28T03:53:21.706Z,2.90
2024-01-28T03:55:50.056Z,2.93
2024-01-28T03:58:18.530Z,3.60
2024-01-28T04:00:47.046Z,4.27
2024-01-28T04:03:15.698Z,3.00
2024-01-28T04:05:44.619Z,3.10
2024-01-28T04:08:14.522Z,2.97
2024-01-28T04:10:42.958Z,2.93
2024-01-28T04:13:11.236Z,2.90
2024-01-28T04:15:39.762Z,2.47
2024-01-28T04:18:08.410Z,3.00
2024-01-28T04:20:36.816Z,2.80
2024-01-28T04:23:06.186Z,3.37
2024-01-28T04:25:36.618Z,2.87
2024-01-28T04:28:05.040Z,2.70
2024-01-28T04:30:34.138Z,3.27
2024-01-28T04:33:02.604Z,2.80
2024-01-28T04:35:30.920Z,2.57
2024-01-28T04:37:59.243Z,3.10
2024-01-28T04:40:27.716Z,2.63
2024-01-28T04:42:57.709Z,2.67
2024-01-28T04:45:26.057Z,3.00
2024-01-28T04:47:54.659Z,3.23
2024-01-28T04:50:23.024Z,2.60
2024-01-28T04:52:51.784Z,2.63
2024-01-28T04:55:20.020Z,2.97
2024-01-28T04:57:48.287Z,2.50
2024-01-28T05:00:19.171Z,2.90
2024-01-28T05:02:47.662Z,2.90
2024-01-28T05:05:16.221Z,3.30
2024-01-28T05:07:44.576Z,3.00
2024-01-28T05:10:13.995Z,2.73
2024-01-28T05:12:42.327Z,2.80
2024-01-28T05:15:15.014Z,3.77
2024-01-28T05:17:45.992Z,3.40
2024-01-28T05:20:16.284Z,3.13
2024-01-28T05:22:44.796Z,7.07
2024-01-28T05:25:14.383Z,4.23
2024-01-28T05:27:44.013Z,4.10
2024-01-28T05:30:12.945Z,3.80
2024-01-28T05:32:42.355Z,3.53
2024-01-28T05:35:12.713Z,3.20
2024-01-28T05:37:42.193Z,2.60
2024-01-28T05:40:11.350Z,3.07
2024-01-28T05:42:39.762Z,3.20
2024-01-28T05:45:09.280Z,3.10
2024-01-28T05:47:38.156Z,3.40
2024-01-28T05:50:07.812Z,2.90
2024-01-28T05:52:38.188Z,3.20
2024-01-28T05:55:07.145Z,4.10
2024-01-28T05:57:35.499Z,4.10
2024-01-28T06:00:04.715Z,4.00
2024-01-28T06:02:33.111Z,3.50
2024-01-28T06:05:03.594Z,4.17
2024-01-28T06:07:33.536Z,3.77
2024-01-28T06:10:03.630Z,3.47
2024-01-28T06:12:31.948Z,3.20
2024-01-28T06:15:05.905Z,3.77
2024-01-28T06:17:34.388Z,3.73
2024-01-28T06:20:02.851Z,3.43
2024-01-28T06:22:31.143Z,3.87
2024-01-28T06:25:00.649Z,3.53
2024-01-28T06:27:31.018Z,4.13
2024-01-28T06:29:59.333Z,3.63
2024-01-28T06:32:27.880Z,3.83
2024-01-28T06:34:56.747Z,3.67
2024-01-28T06:37:25.180Z,2.80
2024-01-28T06:39:53.682Z,3.73
2024-01-28T06:42:22.115Z,3.70
2024-01-28T06:44:51.834Z,3.53
2024-01-28T06:47:20.113Z,3.60
2024-01-28T06:49:51.562Z,3.30
2024-01-28T06:52:20.099Z,3.30
2024-01-28T06:54:50.423Z,4.17
2024-01-28T06:57:20.621Z,3.73
2024-01-28T06:59:49.062Z,2.90
2024-01-28T07:02:18.831Z,2.67
2024-01-28T07:04:47.840Z,3.20
2024-01-28T07:07:16.269Z,3.50
2024-01-28T07:09:44.548Z,3.23
2024-01-28T07:12:13.403Z,3.60
2024-01-28T07:14:43.085Z,3.13
2024-01-28T07:17:12.307Z,3.47
2024-01-28T07:19:43.260Z,4.50
2024-01-28T07:22:13.225Z,3.87
2024-01-28T07:24:41.935Z,3.20
2024-01-28T07:27:10.376Z,3.23
2024-01-28T07:29:39.179Z,3.30
2024-01-28T07:32:07.801Z,4.50
2024-01-28T07:34:36.084Z,4.37
2024-01-28T07:37:06.481Z,4.53
2024-01-28T07:39:34.822Z,3.67
2024-01-28T07:42:03.073Z,3.30
2024-01-28T07:44:31.457Z,3.90
2024-01-28T07:47:00.845Z,3.00
2024-01-28T07:49:29.709Z,8.40
2024-01-28T07:51:58.581Z,10.20
2024-01-28T07:54:28.512Z,5.50
2024-01-28T07:56:58.477Z,5.03
2024-01-28T07:59:26.736Z,3.73
2024-01-28T08:01:54.990Z,4.80
2024-01-28T08:04:23.576Z,3.80
2024-01-28T08:06:51.985Z,3.47
2024-01-28T08:09:20.375Z,3.90
2024-01-28T08:11:50.419Z,3.63
2024-01-28T08:14:18.834Z,3.70
2024-01-28T08:16:47.103Z,3.87
2024-01-28T08:19:15.954Z,3.67
2024-01-28T08:21:44.641Z,4.00
2024-01-28T08:24:13.238Z,4.20
2024-01-28T08:26:41.805Z,3.33
2024-01-28T08:29:12.686Z,4.10
2024-01-28T08:31:42.207Z,3.03
2024-01-28T08:34:10.661Z,2.80
2024-01-28T08:36:39.244Z,3.47
2024-01-28T08:39:10.953Z,3.43
2024-01-28T08:41:39.796Z,3.40
2024-01-28T08:44:08.405Z,3.00
2024-01-28T08:46:41.652Z,3.40
2024-01-28T08:49:10.145Z,2.37
2024-01-28T08:51:39.842Z,2.93
2024-01-28T08:54:08.230Z,3.10
2024-01-28T08:56:36.715Z,2.90
2024-01-28T08:59:05.005Z,3.50
2024-01-28T09:01:33.432Z,2.80
2024-01-28T09:04:03.276Z,3.20
2024-01-28T09:06:32.451Z,3.03
2024-01-28T09:09:04.683Z,3.23
2024-01-28T09:11:33.247Z,5.83
2024-01-28T09:14:02.529Z,2.53
2024-01-28T09:16:30.809Z,3.30
2024-01-28T09:18:59.406Z,2.57
2024-01-28T09:21:29.325Z,2.70
2024-01-28T09:23:58.362Z,3.17
2024-01-28T09:26:26.671Z,2.30
2024-01-28T09:28:55.156Z,2.50
2024-01-28T09:31:23.523Z,3.17
2024-01-28T09:33:52.045Z,3.00
2024-01-28T09:36:20.440Z,2.97
2024-01-28T09:38:50.195Z,3.37
2024-01-28T09:41:24.544Z,2.80
2024-01-28T09:43:52.884Z,2.40
2024-01-28T09:46:21.349Z,2.67
2024-01-28T09:48:49.789Z,2.47
2024-01-28T09:51:21.380Z,2.37
2024-01-28T09:53:51.450Z,3.00
2024-01-28T09:56:20.142Z,3.00
2024-01-28T09:58:49.318Z,3.93
2024-01-28T10:01:17.923Z,2.27
2024-01-28T10:03:48.110Z,2.47
2024-01-28T10:06:16.582Z,2.73
2024-01-28T10:08:44.935Z,3.30
2024-01-28T10:11:16.680Z,3.67
2024-01-28T10:13:44.914Z,2.70
2024-01-28T10:16:13.381Z,2.40
2024-01-28T10:18:41.792Z,2.80
2024-01-28T10:21:10.247Z,2.27
2024-01-28T10:23:39.398Z,1.87
2024-01-28T10:26:08.317Z,2.10
2024-01-28T10:28:40.073Z,2.40
2024-01-28T10:31:08.959Z,2.63
2024-01-28T10:33:38.128Z,2.30
2024-01-28T10:36:11.237Z,2.20
2024-01-28T10:38:46.639Z,2.33
2024-01-28T10:41:18.692Z,1.90
2024-01-28T10:43:53.983Z,2.60
2024-01-28T10:46:30.645Z,2.00
2024-01-28T10:49:06.059Z,2.03
2024-01-28T10:51:36.873Z,2.23
2024-01-28T10:54:06.319Z,2.00
2024-01-28T10:56:41.924Z,2.30
2024-01-28T10:59:12.318Z,2.00
2024-01-28T11:01:41.361Z,2.57
2024-01-28T11:04:10.563Z,2.20
2024-01-28T11:06:39.470Z,2.50
2024-01-28T11:09:07.980Z,2.80
2024-01-28T11:11:36.464Z,2.40
2024-01-28T11:14:09.580Z,3.47
2024-01-28T11:16:41.522Z,2.70
2024-01-28T11:19:12.336Z,3.03
2024-01-28T11:21:41.665Z,2.30
2024-01-28T11:24:11.456Z,2.70
2024-01-28T11:26:43.426Z,2.83
2024-01-28T11:29:13.701Z,2.93
2024-01-28T11:31:44.558Z,2.83
2024-01-28T11:34:17.309Z,3.00
2024-01-28T11:36:47.580Z,3.17
2024-01-28T11:39:17.761Z,3.33
2024-01-28T11:41:47.259Z,3.37
2024-01-28T11:44:16.397Z,2.73
2024-01-28T11:46:46.616Z,2.83
2024-01-28T11:49:14.920Z,4.30
2024-01-28T11:51:43.714Z,3.10
2024-01-28T11:54:12.149Z,2.83
2024-01-28T11:56:43.070Z,3.73
2024-01-28T11:59:12.900Z,2.70
2024-01-28T12:01:41.527Z,2.70
2024-01-28T12:04:11.437Z,2.70
2024-01-28T12:06:40.183Z,2.93
2024-01-28T12:09:08.582Z,2.80
2024-01-28T12:11:37.882Z,2.70
2024-01-28T12:14:07.268Z,3.13
2024-01-28T12:16:38.527Z,3.23
2024-01-28T12:19:09.382Z,3.43
2024-01-28T12:21:40.686Z,3.00
2024-01-28T12:24:12.261Z,4.93
2024-01-28T12:26:40.929Z,2.67
2024-01-28T12:29:10.189Z,3.33
2024-01-28T12:31:38.743Z,2.83
2024-01-28T12:34:16.309Z,3.13
2024-01-28T12:36:46.418Z,2.70
2024-01-28T12:39:14.784Z,2.90
2024-01-28T12:41:43.186Z,2.70
2024-01-28T12:44:11.686Z,2.83
2024-01-28T12:46:39.904Z,3.33
2024-01-28T12:49:12.759Z,2.77
2024-01-28T12:51:41.585Z,3.30
2024-01-28T12:54:11.605Z,3.20
2024-01-28T12:56:40.109Z,3.43
2024-01-28T12:59:08.331Z,3.40
2024-01-28T13:01:37.025Z,2.47
2024-01-28T13:04:05.670Z,3.27
2024-01-28T13:06:34.190Z,2.70
2024-01-28T13:09:02.532Z,2.73
2024-01-28T13:11:32.327Z,3.13
2024-01-28T13:14:00.985Z,3.03
2024-01-28T13:16:29.504Z,2.73
2024-01-28T13:18:57.902Z,2.70
2024-01-28T13:21:26.280Z,3.20
2024-01-28T13:23:54.486Z,3.13
2024-01-28T13:26:23.100Z,3.60
2024-01-28T13:28:52.845Z,3.57
2024-01-28T13:31:21.296Z,2.60
2024-01-28T13:33:50.020Z,2.17
2024-01-28T13:36:19.042Z,2.77
2024-01-28T13:38:48.248Z,3.20
2024-01-28T13:41:17.170Z,2.77
2024-01-28T13:43:45.535Z,2.77
2024-01-28T13:46:15.468Z,2.63
2024-01-28T13:48:44.090Z,2.47
2024-01-28T13:51:12.511Z,3.00
2024-01-28T13:53:40.901Z,3.50
2024-01-28T13:56:09.984Z,3.07
2024-01-28T13:58:38.540Z,3.20
2024-01-28T14:01:07.212Z,3.23
2024-01-28T14:03:37.222Z,3.23
2024-01-28T14:06:06.458Z,3.63
2024-01-28T14:08:35.002Z,2.90
2024-01-28T14:11:03.345Z,2.90
2024-01-28T14:13:31.765Z,2.87
2024-01-28T14:16:00.130Z,2.60
2024-01-28T14:18:28.569Z,2.70
2024-01-28T14:20:58.319Z,2.80
2024-01-28T14:23:26.589Z,2.73
2024-01-28T14:25:55.177Z,3.20
2024-01-28T14:28:23.473Z,2.70
2024-01-28T14:30:51.811Z,3.30
2024-01-28T14:33:20.297Z,5.23
2024-01-28T14:35:49.195Z,4.27
2024-01-28T14:38:18.972Z,3.30
2024-01-28T14:40:47.183Z,3.50
2024-01-28T14:43:15.725Z,3.60
2024-01-28T14:45:45.497Z,3.50
2024-01-28T14:48:20.514Z,4.03
2024-01-28T14:50:51.730Z,3.20
2024-01-28T14:53:21.860Z,3.27
2024-01-28T14:55:50.276Z,3.40
2024-01-28T14:58:18.578Z,3.70
2024-01-28T15:00:47.803Z,4.13
2024-01-28T15:03:16.262Z,3.67
2024-01-28T15:05:44.634Z,4.23
2024-01-28T15:08:13.208Z,4.03
2024-01-28T15:10:43.028Z,3.47
2024-01-28T15:13:11.410Z,3.37
2024-01-28T15:15:39.880Z,4.20
2024-01-28T15:18:08.398Z,4.03
2024-01-28T15:20:36.832Z,3.30
2024-01-28T15:23:05.454Z,4.00
2024-01-28T15:25:33.855Z,4.17
2024-01-28T15:28:03.750Z,4.70
2024-01-28T15:30:32.124Z,3.67
2024-01-28T15:33:00.583Z,4.07
2024-01-28T15:35:28.972Z,4.47
2024-01-28T15:37:57.343Z,4.97
2024-01-28T15:40:25.832Z,4.00
2024-01-28T15:42:54.145Z,3.77
2024-01-28T15:45:24.144Z,4.33
2024-01-28T15:47:52.787Z,5.43
2024-01-28T15:50:21.205Z,4.60
2024-01-28T15:52:50.679Z,4.37
2024-01-28T15:55:26.055Z,4.87
2024-01-28T15:57:57.613Z,5.50
2024-01-28T16:00:27.468Z,5.17
2024-01-28T16:02:55.854Z,4.83
2024-01-28T16:05:24.514Z,6.90
2024-01-28T16:07:53.461Z,5.47
2024-01-28T16:10:21.867Z,6.30
2024-01-28T16:12:50.708Z,7.27
2024-01-28T16:15:19.120Z,5.70
2024-01-28T16:17:50.825Z,5.83
2024-01-28T16:20:19.556Z,6.10
2024-01-28T16:22:48.005Z,5.90
2024-01-28T16:25:16.622Z,5.77
2024-01-28T16:27:45.457Z,6.80
2024-01-28T16:30:15.028Z,7.53
2024-01-28T16:32:43.353Z,7.63
2024-01-28T16:35:13.524Z,6.63
2024-01-28T16:37:42.217Z,7.80
2024-01-28T16:40:11.688Z,7.60
2024-01-28T16:42:40.942Z,7.30
2024-01-28T16:45:12.923Z,6.73
2024-01-28T16:47:41.451Z,5.40
2024-01-28T16:50:10.978Z,6.53
2024-01-28T16:52:42.132Z,8.40
2024-01-28T16:55:10.940Z,5.93
2024-01-28T16:57:40.310Z,5.67
2024-01-28T17:00:10.628Z,6.23
2024-01-28T17:02:39.519Z,6.17
2024-01-28T17:05:09.167Z,7.07
2024-01-28T17:07:39.338Z,7.90
2024-01-28T17:10:10.242Z,8.60
2024-01-28T17:12:38.916Z,9.17
2024-01-28T17:15:08.265Z,9.93
2024-01-28T17:17:37.854Z,10.50
2024-01-28T17:20:09.878Z,6.50
2024-01-28T17:22:38.342Z,9.33
2024-01-28T17:25:11.751Z,8.00
2024-01-28T17:27:42.362Z,7.77
2024-01-28T17:30:11.580Z,7.43
2024-01-28T17:32:40.004Z,6.53
2024-01-28T17:35:09.049Z,7.73
2024-01-28T17:37:37.716Z,6.77
2024-01-28T17:40:07.280Z,6.57
2024-01-28T17:42:37.529Z,6.37
2024-01-28T17:45:07.206Z,6.90
2024-01-28T17:47:37.584Z,6.77
2024-01-28T17:50:10.165Z,8.90
2024-01-28T17:52:38.812Z,7.23
2024-01-28T17:55:09.111Z,7.70
2024-01-28T17:57:38.924Z,8.27
2024-01-28T18:00:10.013Z,8.03
2024-01-28T18:02:38.399Z,7.63
2024-01-28T18:05:07.340Z,7.77
2024-01-28T18:07:36.517Z,7.97
2024-01-28T18:10:05.372Z,8.93
2024-01-28T18:12:33.729Z,10.03
2024-01-28T18:15:05.585Z,9.73
2024-01-28T18:17:33.906Z,9.87
2024-01-28T18:20:02.626Z,10.87
2024-01-28T18:22:30.963Z,18.30
2024-01-28T18:24:59.463Z,15.10
2024-01-28T18:27:28.008Z,16.50
2024-01-28T18:29:56.512Z,15.13
2024-01-28T18:32:27.166Z,15.47
2024-01-28T18:34:55.669Z,13.93
2024-01-28T18:37:25.593Z,14.00
2024-01-28T18:39:54.035Z,13.30
2024-01-28T18:42:24.210Z,13.17
2024-01-28T18:44:52.477Z,10.87
2024-01-28T18:47:20.910Z,12.60
2024-01-28T18:49:50.914Z,12.27
2024-01-28T18:52:19.242Z,11.83
2024-01-28T18:54:47.673Z,11.73
2024-01-28T18:57:16.200Z,11.40
2024-01-28T18:59:44.486Z,12.60
2024-01-28T19:02:14.815Z,13.80
2024-01-28T19:04:43.182Z,13.40
2024-01-28T19:07:12.914Z,12.57
2024-01-28T19:09:41.704Z,13.03
2024-01-28T19:12:10.434Z,12.00
2024-01-28T19:14:38.930Z,13.20
2024-01-28T19:17:07.697Z,13.07
2024-01-28T19:19:36.357Z,15.53
2024-01-28T19:22:04.744Z,14.47
2024-01-28T19:24:34.715Z,16.30
2024-01-28T19:27:03.030Z,16.17
2024-01-28T19:29:31.820Z,16.63
2024-01-28T19:32:01.097Z,16.13
2024-01-28T19:34:29.508Z,16.10
2024-01-28T19:37:00.527Z,18.17
2024-01-28T19:39:34.555Z,15.90
2024-01-28T19:42:06.431Z,16.07
2024-01-28T19:44:34.784Z,15.03
2024-01-28T19:47:03.169Z,14.00
2024-01-28T19:49:32.418Z,14.23
2024-01-28T19:52:01.514Z,13.30
2024-01-28T19:54:29.975Z,12.33
2024-01-28T19:56:58.333Z,12.17
2024-01-28T19:59:28.025Z,12.17
2024-01-28T20:01:56.640Z,12.23
2024-01-28T20:04:26.906Z,13.83
2024-01-28T20:06:55.429Z,11.50
2024-01-28T20:09:23.840Z,11.33
2024-01-28T20:11:52.150Z,11.23
2024-01-28T20:14:20.439Z,11.60
2024-01-28T20:16:50.538Z,12.03
2024-01-28T20:19:23.281Z,13.07
2024-01-28T20:21:54.703Z,11.77
2024-01-28T20:24:23.487Z,11.23
2024-01-28T20:26:51.965Z,10.93
2024-01-28T20:29:20.273Z,11.30
2024-01-28T20:31:49.981Z,11.43
2024-01-28T20:34:18.445Z,11.27
2024-01-28T20:36:46.823Z,11.20
2024-01-28T20:39:15.388Z,10.70
2024-01-28T20:41:44.994Z,14.27
2024-01-28T20:44:13.259Z,10.03
2024-01-28T20:46:44.199Z,11.00
2024-01-28T20:49:14.001Z,10.43
2024-01-28T20:51:42.844Z,12.63
2024-01-28T20:54:12.929Z,11.83
2024-01-28T20:56:41.829Z,12.17
2024-01-28T20:59:10.083Z,11.53
2024-01-28T21:01:38.960Z,10.90
2024-01-28T21:04:07.403Z,11.17
2024-01-28T21:06:37.285Z,9.83
2024-01-28T21:09:05.679Z,9.23
2024-01-28T21:11:34.014Z,8.27
2024-01-28T21:14:04.970Z,8.77
2024-01-28T21:16:33.239Z,8.70
2024-01-28T21:19:01.714Z,9.23
2024-01-28T21:21:30.054Z,9.37
2024-01-28T21:23:59.854Z,9.07
2024-01-28T21:26:28.700Z,9.97
2024-01-28T21:28:56.904Z,10.23
2024-01-28T21:31:25.254Z,8.83
2024-01-28T21:33:54.626Z,9.50
2024-01-28T21:36:22.919Z,9.60
2024-01-28T21:38:51.358Z,9.23
2024-01-28T21:41:21.036Z,9.93
2024-01-28T21:43:49.302Z,8.93
2024-01-28T21:46:17.654Z,9.83
2024-01-28T21:48:46.059Z,10.37
2024-01-28T21:51:14.811Z,10.43
2024-01-28T21:53:43.890Z,11.57
2024-01-28T21:56:13.404Z,12.80
2024-01-28T21:58:43.012Z,12.93
2024-01-28T22:01:11.346Z,12.20
2024-01-28T22:03:41.113Z,12.33
2024-01-28T22:06:09.497Z,11.90
2024-01-28T22:08:37.973Z,12.50
2024-01-28T22:11:06.315Z,12.37
2024-01-28T22:13:34.576Z,11.40
2024-01-28T22:16:05.559Z,12.10
2024-01-28T22:18:34.003Z,12.23
2024-01-28T22:21:03.247Z,12.10
2024-01-28T22:23:31.555Z,13.40
2024-01-28T22:25:59.820Z,13.07
2024-01-28T22:28:28.226Z,12.97
2024-01-28T22:30:56.746Z,12.97
2024-01-28T22:33:25.626Z,12.83
2024-01-28T22:35:54.606Z,13.57
2024-01-28T22:38:22.908Z,12.27
2024-01-28T22:40:51.492Z,12.73
2024-01-28T22:43:19.868Z,12.40
2024-01-28T22:45:48.355Z,14.33
2024-01-28T22:48:16.760Z,13.50
2024-01-28T22:50:47.361Z,11.97
2024-01-28T22:53:15.965Z,12.23
2024-01-28T22:55:44.247Z,12.80
2024-01-28T22:58:12.643Z,12.57
2024-01-28T23:00:45.313Z,11.97
2024-01-28T23:03:14.271Z,11.20
2024-01-28T23:05:43.255Z,10.03
2024-01-28T23:08:13.256Z,9.40
2024-01-28T23:10:42.229Z,9.53
2024-01-28T23:13:10.961Z,10.10
2024-01-28T23:15:39.571Z,9.40
2024-01-28T23:18:08.244Z,9.83
2024-01-28T23:20:36.911Z,9.10
2024-01-28T23:23:05.681Z,8.87
2024-01-28T23:25:35.581Z,9.33
2024-01-28T23:28:04.630Z,9.40
2024-01-28T23:30:33.190Z,10.73
2024-01-28T23:33:03.845Z,10.00
2024-01-28T23:35:32.214Z,9.50
2024-01-28T23:38:00.546Z,8.30
2024-01-28T23:40:29.516Z,8.10
2024-01-28T23:43:01.018Z,8.63
2024-01-28T23:45:29.415Z,7.70
2024-01-28T23:47:57.749Z,6.90
2024-01-28T23:50:27.017Z,6.77
2024-01-28T23:53:02.178Z,8.07
2024-01-28T23:55:30.446Z,7.77
2024-01-28T23:58:00.221Z,6.60
